createdAt,value
2022-11-22T00:00:03.403Z,23.27
2022-11-22T00:05:33.870Z,21.40
2022-11-22T00:10:40.206Z,19.33
2022-11-22T00:15:47.466Z,22.17
2022-11-22T00:20:55.615Z,19.30
2022-11-22T00:26:02.255Z,21.92
2022-11-22T00:31:08.665Z,22.05
2022-11-22T00:36:17.468Z,23.55
2022-11-22T00:41:23.910Z,20.90
2022-11-22T00:46:30.531Z,20.67
2022-11-22T00:51:38.437Z,20.70
2022-11-22T00:56:44.654Z,20.88
2022-11-22T01:01:51.021Z,21.27
2022-11-22T01:06:58.903Z,20.17
2022-11-22T01:12:05.578Z,20.65
2022-11-22T01:17:11.999Z,20.75
2022-11-22T01:22:19.796Z,19.38
2022-11-22T01:27:26.159Z,20.55
2022-11-22T01:32:32.270Z,19.77
2022-11-22T01:37:39.767Z,19.33
2022-11-22T01:42:50.127Z,19.08
2022-11-22T01:47:56.553Z,19.05
2022-11-22T01:53:11.084Z,19.08
2022-11-22T01:58:18.219Z,18.80
2022-11-22T02:03:25.557Z,18.92
2022-11-22T02:08:41.718Z,20.45
2022-11-22T02:13:48.700Z,19.63
2022-11-22T02:18:54.701Z,17.25
2022-11-22T02:24:09.300Z,19.05
2022-11-22T02:29:17.595Z,18.30
2022-11-22T02:34:23.829Z,14.30
2022-11-22T02:39:33.282Z,18.15
2022-11-22T02:44:42.203Z,18.48
2022-11-22T02:49:48.512Z,19.00
2022-11-22T02:54:54.636Z,19.42
2022-11-22T03:00:02.414Z,17.60
2022-11-22T03:05:10.115Z,14.13
2022-11-22T03:10:16.673Z,18.25
2022-11-22T03:15:24.242Z,18.95
2022-11-22T03:20:31.583Z,18.40
2022-11-22T03:25:39.962Z,17.55
2022-11-22T03:30:47.760Z,17.03
2022-11-22T03:35:58.345Z,19.00
2022-11-22T03:41:05.810Z,20.33
2022-11-22T03:46:17.670Z,19.83
2022-11-22T03:51:24.196Z,17.67
2022-11-22T03:56:30.174Z,18.85
2022-11-22T04:01:37.786Z,19.77
2022-11-22T04:06:44.080Z,18.83
2022-11-22T04:11:50.407Z,20.00
2022-11-22T04:16:58.242Z,18.95
2022-11-22T04:22:04.325Z,23.27
2022-11-22T04:27:10.692Z,23.20
2022-11-22T04:32:35.730Z,24.00
2022-11-22T04:37:42.055Z,22.77
2022-11-22T04:43:05.355Z,25.90
2022-11-22T04:48:13.766Z,25.85
2022-11-22T04:53:21.078Z,30.43
2022-11-22T04:58:27.732Z,30.70
2022-11-22T05:03:35.567Z,30.92
2022-11-22T05:08:42.032Z,27.10
2022-11-22T05:13:48.258Z,24.58
2022-11-22T05:19:00.559Z,28.02
2022-11-22T05:24:07.866Z,27.98
2022-11-22T05:29:13.885Z,27.08
2022-11-22T05:34:21.677Z,30.00
2022-11-22T05:39:28.021Z,27.33
2022-11-22T05:44:34.483Z,30.70
2022-11-22T05:49:42.080Z,31.13
2022-11-22T05:54:48.145Z,31.38
2022-11-22T05:59:54.330Z,29.13
2022-11-22T06:05:02.603Z,32.10
2022-11-22T06:10:10.261Z,31.70
2022-11-22T06:15:16.675Z,32.53
2022-11-22T06:20:24.668Z,30.80
2022-11-22T06:25:31.422Z,33.28
2022-11-22T06:30:37.673Z,32.30
2022-11-22T06:35:45.440Z,31.42
2022-11-22T06:40:51.792Z,31.63
2022-11-22T06:45:58.825Z,30.55
2022-11-22T06:51:08.952Z,30.08
2022-11-22T06:56:17.410Z,30.17
2022-11-22T07:01:26.279Z,28.45
2022-11-22T07:11:42.557Z,24.40
2022-11-22T07:16:48.913Z,24.85
2022-11-22T07:21:56.604Z,23.52
2022-11-22T07:27:02.763Z,23.13
2022-11-22T07:32:09.130Z,25.02
2022-11-22T07:37:16.920Z,24.45
2022-11-22T07:42:26.127Z,24.52
2022-11-22T07:47:33.906Z,27.52
2022-11-22T07:52:41.698Z,25.35
2022-11-22T07:57:47.843Z,26.02
2022-11-22T08:02:54.139Z,28.60
2022-11-22T08:08:01.853Z,26.27
2022-11-22T08:13:07.995Z,26.15
2022-11-22T08:18:14.155Z,26.88
2022-11-22T08:23:21.679Z,25.75
2022-11-22T08:28:27.921Z,26.65
2022-11-22T08:33:34.043Z,27.77
2022-11-22T08:38:41.824Z,24.38
2022-11-22T08:43:48.032Z,25.20
2022-11-22T08:48:54.968Z,27.10
2022-11-22T08:54:02.936Z,26.83
2022-11-22T08:59:09.782Z,25.27
2022-11-22T09:04:16.201Z,25.50
2022-11-22T09:09:37.227Z,25.25
2022-11-22T09:14:43.944Z,25.90
2022-11-22T09:19:50.236Z,26.67
2022-11-22T09:24:57.921Z,25.23
2022-11-22T09:30:04.448Z,24.88
2022-11-22T09:35:11.255Z,28.38
2022-11-22T09:40:19.388Z,27.38
2022-11-22T09:46:11.128Z,26.30
2022-11-22T09:51:21.725Z,25.63
2022-11-22T09:56:31.253Z,23.90
2022-11-22T10:01:42.023Z,28.67
2022-11-22T10:06:52.406Z,25.95
2022-11-22T10:12:08.981Z,26.38
2022-11-22T10:17:43.129Z,26.20
2022-11-22T10:22:50.865Z,23.13
2022-11-22T10:28:07.709Z,24.83
2022-11-22T10:33:24.760Z,26.00
2022-11-22T10:38:53.478Z,27.38
2022-11-22T10:44:17.549Z,24.17
2022-11-22T10:49:38.378Z,22.80
2022-11-22T10:54:54.035Z,17.52
2022-11-22T11:00:19.111Z,15.13
2022-11-22T11:06:00.933Z,20.63
2022-11-22T11:11:06.284Z,19.25
2022-11-22T11:16:18.924Z,17.45
2022-11-22T11:21:26.771Z,17.10
2022-11-22T11:26:36.387Z,15.02
2022-11-22T11:31:48.246Z,18.85
2022-11-22T11:36:58.805Z,18.88
2022-11-22T11:42:26.404Z,17.98
2022-11-22T11:47:37.329Z,18.27
2022-11-22T11:52:54.452Z,18.95
2022-11-22T11:58:00.772Z,22.30
2022-11-22T12:03:13.929Z,21.60
2022-11-22T12:08:38.185Z,21.30
2022-11-22T12:14:18.523Z,26.48
2022-11-22T12:19:30.816Z,26.80
2022-11-22T12:25:03.133Z,24.48
2022-11-22T12:30:15.259Z,23.88
2022-11-22T12:35:26.180Z,23.45
2022-11-22T12:40:41.770Z,24.73
2022-11-22T12:45:51.717Z,28.50
2022-11-22T12:51:09.049Z,24.58
2022-11-22T12:56:32.700Z,26.73
2022-11-22T13:01:51.763Z,19.90
2022-11-22T13:07:08.964Z,18.83
2022-11-22T13:12:18.994Z,20.60
2022-11-22T13:17:28.512Z,19.40
2022-11-22T13:22:47.816Z,17.25
2022-11-22T13:27:59.321Z,17.75
2022-11-22T13:33:06.223Z,16.90
2022-11-22T13:38:18.897Z,16.35
2022-11-22T13:43:51.993Z,17.83
2022-11-22T13:49:17.373Z,17.27
2022-11-22T13:55:02.803Z,17.88
2022-11-22T14:00:48.896Z,18.10
2022-11-22T14:05:59.246Z,18.58
2022-11-22T14:11:35.222Z,16.85
2022-11-22T14:17:01.459Z,17.67
2022-11-22T14:22:20.819Z,20.20
2022-11-22T14:27:45.513Z,19.30
2022-11-22T14:33:02.973Z,20.58
2022-11-22T14:38:33.515Z,20.23
2022-11-22T14:43:43.311Z,24.15
2022-11-22T14:48:57.966Z,19.70
2022-11-22T14:54:07.852Z,19.90
2022-11-22T14:59:59.356Z,21.13
2022-11-22T15:09:11.063Z,19.40
2022-11-22T15:11:13.153Z,19.30
2022-11-22T16:00:26.837Z,16.55
2022-11-22T16:06:07.516Z,15.63
2022-11-22T16:11:04.951Z,15.60
2022-11-22T16:16:23.136Z,16.88
2022-11-22T16:21:32.623Z,16.60
2022-11-22T16:26:39.687Z,18.40
2022-11-22T16:31:49.395Z,17.77
2022-11-22T16:36:57.486Z,16.83
2022-11-22T16:42:05.148Z,16.13
2022-11-22T16:47:16.730Z,17.35
2022-11-22T16:52:27.541Z,19.75
2022-11-22T16:57:34.099Z,18.42
2022-11-22T17:02:44.180Z,17.73
2022-11-22T17:07:53.003Z,14.82
2022-11-22T17:18:09.182Z,17.75
2022-11-22T17:23:23.339Z,17.52
2022-11-22T17:28:31.048Z,20.90
2022-11-22T17:33:40.420Z,18.45
2022-11-22T17:38:50.152Z,17.60
2022-11-22T17:43:57.107Z,18.10
2022-11-22T17:49:05.443Z,15.68
2022-11-22T17:54:14.711Z,17.83
2022-11-22T17:59:23.044Z,17.48
2022-11-22T18:04:31.300Z,12.40
2022-11-22T18:09:40.943Z,18.37
2022-11-22T18:14:49.608Z,19.42
2022-11-22T18:19:57.088Z,16.90
2022-11-22T18:25:07.771Z,16.63
2022-11-22T18:30:17.335Z,17.02
2022-11-22T18:35:24.732Z,16.77
2022-11-22T18:40:34.876Z,15.95
2022-11-22T18:45:42.476Z,18.10
2022-11-22T18:50:49.541Z,17.58
2022-11-22T18:56:05.293Z,18.83
2022-11-22T19:01:15.532Z,18.88
2022-11-22T19:06:23.171Z,18.73
2022-11-22T19:11:33.708Z,19.27
2022-11-22T19:16:41.454Z,20.77
2022-11-22T19:21:50.322Z,20.65
2022-11-22T19:26:59.897Z,20.00
2022-11-22T19:32:09.120Z,22.10
2022-11-22T19:37:16.752Z,18.30
2022-11-22T19:42:27.257Z,21.58
2022-11-22T19:47:34.737Z,20.92
2022-11-22T19:57:51.328Z,20.40
2022-11-22T20:02:59.833Z,21.02
2022-11-22T20:08:07.801Z,20.27
2022-11-22T20:18:27.063Z,19.20
2022-11-22T20:23:35.232Z,22.27
2022-11-22T20:28:49.767Z,15.23
2022-11-22T20:33:59.785Z,20.25
2022-11-22T20:39:10.725Z,22.02
2022-11-22T20:44:24.582Z,20.77
2022-11-22T20:49:33.250Z,20.52
2022-11-22T20:54:40.803Z,20.08
2022-11-22T20:59:49.008Z,20.23
2022-11-22T21:05:01.025Z,21.95
2022-11-22T21:10:10.056Z,22.42
2022-11-22T21:15:19.643Z,20.30
2022-11-22T21:20:26.914Z,19.25
2022-11-22T21:25:33.647Z,20.42
2022-11-22T21:30:41.564Z,19.92
2022-11-22T21:35:48.605Z,20.60
2022-11-22T21:41:10.775Z,19.90
2022-11-22T21:46:25.467Z,23.43
2022-11-22T21:51:32.340Z,20.42
2022-11-22T21:56:38.776Z,22.13
2022-11-22T22:01:46.842Z,20.55
2022-11-22T22:06:53.716Z,24.23
2022-11-22T22:12:00.096Z,22.20
2022-11-22T22:17:07.981Z,20.17
2022-11-22T22:22:14.438Z,21.50
2022-11-22T22:27:21.286Z,20.42
2022-11-22T22:32:29.760Z,22.90
2022-11-22T22:37:36.446Z,20.13
2022-11-22T22:42:44.534Z,19.17
2022-11-22T22:47:52.944Z,22.67
2022-11-22T22:52:59.633Z,22.55
2022-11-22T22:58:08.439Z,21.13
2022-11-22T23:03:18.898Z,17.98
2022-11-22T23:08:25.756Z,17.42
2022-11-22T23:13:33.082Z,16.35
2022-11-22T23:18:43.845Z,20.50
2022-11-22T23:23:50.220Z,19.85
2022-11-22T23:28:56.709Z,19.60
2022-11-22T23:34:05.202Z,19.95
2022-11-22T23:39:11.977Z,20.17
2022-11-22T23:44:18.595Z,20.73
2022-11-22T23:49:26.372Z,18.35
2022-11-22T23:54:33.047Z,18.48
2022-11-22T23:59:39.511Z,18.80
